Time;durP1;ratioP1;P1;durP2;ratioP2;P2;SDS_P1;SDS_P2;PMS_P1;PMS_P2;Temp;Humidity;BMP_temperature;BMP_pressure;BME280_temperature;BME280_humidity;BME280_pressure;Samples;Min_cycle;Max_cycle;Signal;HPM_P1;HPM_P2
2022/05/04 00:00:08;;;;;;;12.27;3.60;;;;;;;;;;5004218;28;20421;-77
2022/05/04 00:02:35;;;;;;;10.05;2.97;;;;;;;;;;5005515;28;20623;-77
2022/05/04 00:05:03;;;;;;;10.05;3.78;;;;;;;;;;5005243;28;20217;-77
2022/05/04 00:07:29;;;;;;;11.23;3.25;;;;;;;;;;5005854;28;20129;-77
2022/05/04 00:09:57;;;;;;;10.63;3.42;;;;;;;;;;5003582;28;20051;-77
2022/05/04 00:12:24;;;;;;;7.25;3.30;;;;;;;;;;5000925;28;20062;-77
2022/05/04 00:14:50;;;;;;;9.27;3.03;;;;;;;;;;5000606;28;20061;-77
2022/05/04 00:17:17;;;;;;;8.23;3.58;;;;;;;;;;5000554;28;20230;-76
2022/05/04 00:19:44;;;;;;;9.60;3.35;;;;;;;;;;5004168;28;20054;-77
2022/05/04 00:22:10;;;;;;;11.75;3.13;;;;;;;;;;5003108;28;20848;-77
2022/05/04 00:24:36;;;;;;;15.38;3.88;;;;;;;;;;5015933;28;20145;-77
2022/05/04 00:27:03;;;;;;;12.27;3.45;;;;;;;;;;4988073;28;20050;-77
2022/05/04 00:29:29;;;;;;;10.15;3.40;;;;;;;;;;5003868;28;20080;-77
2022/05/04 00:31:55;;;;;;;11.35;3.15;;;;;;;;;;5000405;28;20067;-77
2022/05/04 00:34:22;;;;;;;12.68;3.53;;;;;;;;;;5020678;28;20058;-77
2022/05/04 00:36:48;;;;;;;11.70;3.17;;;;;;;;;;5005200;28;20519;-77
2022/05/04 00:39:14;;;;;;;9.95;3.45;;;;;;;;;;5005118;28;20133;-77
2022/05/04 00:41:41;;;;;;;9.18;3.33;;;;;;;;;;5003257;28;20089;-77
2022/05/04 00:44:07;;;;;;;12.43;3.50;;;;;;;;;;5004419;28;20129;-77
2022/05/04 00:46:33;;;;;;;9.00;3.50;;;;;;;;;;5003517;28;20058;-76
2022/05/04 00:49:00;;;;;;;12.38;3.22;;;;;;;;;;5006154;28;20064;-77
2022/05/04 00:51:27;;;;;;;10.13;3.38;;;;;;;;;;5003715;28;20145;-76
2022/05/04 00:53:53;;;;;;;11.85;4.03;;;;;;;;;;5004492;28;20186;-76
2022/05/04 00:56:20;;;;;;;13.65;3.60;;;;;;;;;;5004432;28;20680;-76
2022/05/04 00:58:55;;;;;;;13.15;3.50;;;;;;;;;;5004941;28;20176;-76
2022/05/04 01:01:26;;;;;;;11.20;3.30;;;;;;;;;;5004328;28;20116;-76
2022/05/04 01:03:53;;;;;;;;;;;;;;;;;;5003544;28;20101;-76
2022/05/04 01:06:19;;;;;;;13.00;3.92;;;;;;;;;;4990848;28;46007;-77
2022/05/04 01:08:47;;;;;;;14.10;3.83;;;;;;;;;;5003549;28;20064;-77
2022/05/04 01:11:13;;;;;;;11.98;3.42;;;;;;;;;;5004215;28;20798;-77
2022/05/04 01:13:39;;;;;;;10.18;3.83;;;;;;;;;;5003782;28;20120;-76
2022/05/04 01:16:06;;;;;;;9.80;3.38;;;;;;;;;;5020950;28;20261;-77
2022/05/04 01:18:32;;;;;;;15.27;4.38;;;;;;;;;;4986522;28;20145;-77
2022/05/04 01:20:58;;;;;;;13.00;3.38;;;;;;;;;;5001507;28;20145;-77
2022/05/04 01:23:26;;;;;;;13.15;3.63;;;;;;;;;;5003250;28;20085;-76
2022/05/04 01:25:55;;;;;;;12.48;3.53;;;;;;;;;;5011578;28;20054;-77
2022/05/04 01:28:22;;;;;;;8.68;2.92;;;;;;;;;;5003045;28;20140;-76
2022/05/04 01:30:48;;;;;;;16.00;3.90;;;;;;;;;;5004314;28;20169;-76
2022/05/04 01:33:14;;;;;;;11.82;3.58;;;;;;;;;;5003477;28;20623;-76
2022/05/04 01:35:41;;;;;;;12.27;3.60;;;;;;;;;;5020498;28;20785;-76
2022/05/04 01:38:07;;;;;;;15.82;3.50;;;;;;;;;;4987712;28;20062;-76
2022/05/04 01:40:33;;;;;;;13.73;3.50;;;;;;;;;;5001964;28;20505;-77
2022/05/04 01:43:00;;;;;;;10.27;3.55;;;;;;;;;;5018315;28;20066;-76
2022/05/04 01:45:26;;;;;;;10.15;3.45;;;;;;;;;;4986404;28;20098;-76
2022/05/04 01:47:52;;;;;;;16.52;3.97;;;;;;;;;;5003827;28;20062;-76
2022/05/04 01:50:19;;;;;;;11.75;3.90;;;;;;;;;;5003742;28;20168;-77
2022/05/04 01:52:45;;;;;;;14.80;4.05;;;;;;;;;;5004095;28;20542;-76
2022/05/04 01:55:12;;;;;;;10.07;3.67;;;;;;;;;;4987506;28;20130;-77
2022/05/04 01:57:39;;;;;;;12.05;3.55;;;;;;;;;;5001464;28;20176;-77
2022/05/04 02:00:06;;;;;;;9.02;3.10;;;;;;;;;;5003989;28;20130;-77
2022/05/04 02:02:32;;;;;;;10.15;3.42;;;;;;;;;;5002877;28;20172;-76
2022/05/04 02:04:59;;;;;;;13.75;3.72;;;;;;;;;;5002766;28;20121;-76
2022/05/04 02:07:25;;;;;;;14.50;3.75;;;;;;;;;;5003461;28;20141;-76
2022/05/04 02:09:52;;;;;;;10.85;3.67;;;;;;;;;;5001998;28;20046;-76
2022/05/04 02:12:19;;;;;;;12.63;3.60;;;;;;;;;;5001450;28;20054;-76
2022/05/04 02:14:45;;;;;;;10.48;3.10;;;;;;;;;;5004210;28;20567;-76
2022/05/04 02:17:12;;;;;;;14.38;3.47;;;;;;;;;;5004045;28;20054;-76
2022/05/04 02:19:38;;;;;;;10.60;3.88;;;;;;;;;;5005892;28;20159;-77
2022/05/04 02:22:04;;;;;;;11.68;3.30;;;;;;;;;;5011749;28;20054;-77
2022/05/04 02:24:31;;;;;;;11.52;3.55;;;;;;;;;;5011457;28;20584;-77
2022/05/04 02:26:57;;;;;;;12.18;4.20;;;;;;;;;;5008066;28;20062;-76
2022/05/04 02:29:23;;;;;;;16.38;4.25;;;;;;;;;;5006311;28;20109;-76
2022/05/04 02:31:50;;;;;;;14.32;3.92;;;;;;;;;;5020053;28;20190;-76
2022/05/04 02:34:16;;;;;;;12.93;3.67;;;;;;;;;;5026485;28;20528;-77
2022/05/04 02:39:28;;;;;;;8.95;3.58;;;;;;;;;;5003225;28;20058;-76
2022/05/04 02:41:54;;;;;;;14.18;3.92;;;;;;;;;;5010013;28;20054;-76
2022/05/04 02:44:21;;;;;;;12.35;4.07;;;;;;;;;;5027127;28;20546;-76
2022/05/04 02:46:48;;;;;;;13.57;3.80;;;;;;;;;;5006075;28;20153;-77
2022/05/04 02:49:15;;;;;;;13.30;3.65;;;;;;;;;;5005199;28;20488;-77
2022/05/04 02:51:41;;;;;;;11.00;4.28;;;;;;;;;;5023484;28;20058;-77
2022/05/04 02:54:08;;;;;;;11.38;3.80;;;;;;;;;;5021640;28;20082;-76
2022/05/04 02:56:34;;;;;;;11.68;3.40;;;;;;;;;;5005462;28;20137;-77
2022/05/04 02:59:01;;;;;;;10.15;3.72;;;;;;;;;;5003731;28;20166;-77
2022/05/04 03:04:13;;;;;;;11.63;3.67;;;;;;;;;;5006113;28;20477;-77
2022/05/04 03:06:40;;;;;;;16.15;3.97;;;;;;;;;;5005958;28;20058;-76
2022/05/04 03:09:07;;;;;;;11.93;3.58;;;;;;;;;;5005493;28;20068;-77
2022/05/04 03:14:20;;;;;;;14.02;3.60;;;;;;;;;;5006665;28;20059;-76
2022/05/04 03:16:47;;;;;;;10.77;3.42;;;;;;;;;;5004378;28;20345;-76
2022/05/04 03:19:13;;;;;;;11.48;3.65;;;;;;;;;;5005280;28;20142;-76
2022/05/04 03:21:41;;;;;;;9.48;3.50;;;;;;;;;;4999765;28;20129;-76
2022/05/04 03:24:07;;;;;;;10.30;3.53;;;;;;;;;;5004497;28;20433;-76
2022/05/04 03:26:34;;;;;;;14.00;4.13;;;;;;;;;;5007254;28;20157;-77
2022/05/04 03:29:00;;;;;;;12.40;3.78;;;;;;;;;;5017768;28;20055;-76
2022/05/04 03:31:26;;;;;;;14.20;4.00;;;;;;;;;;5002552;28;20133;-76
2022/05/04 03:33:53;;;;;;;8.90;3.47;;;;;;;;;;5006378;28;20544;-76
2022/05/04 03:36:19;;;;;;;11.55;3.78;;;;;;;;;;5005906;28;20078;-76
2022/05/04 03:38:46;;;;;;;12.80;3.70;;;;;;;;;;5005670;28;20052;-76
2022/05/04 03:41:13;;;;;;;9.88;3.47;;;;;;;;;;5021657;28;20062;-76
2022/05/04 03:43:39;;;;;;;9.57;3.28;;;;;;;;;;5005627;28;20533;-77
2022/05/04 03:46:11;;;;;;;14.80;3.90;;;;;;;;;;5004717;28;20058;-76
2022/05/04 03:48:38;;;;;;;9.32;3.35;;;;;;;;;;5005503;28;20065;-77
2022/05/04 03:51:05;;;;;;;9.57;3.47;;;;;;;;;;5004299;28;20133;-76
2022/05/04 03:53:31;;;;;;;14.70;3.88;;;;;;;;;;5003185;28;20501;-76
2022/05/04 03:55:58;;;;;;;13.90;3.50;;;;;;;;;;5005120;28;20617;-77
2022/05/04 03:58:24;;;;;;;12.20;3.58;;;;;;;;;;5016472;28;20513;-75
2022/05/04 04:00:50;;;;;;;8.43;3.63;;;;;;;;;;5003485;28;20516;-76
2022/05/04 04:03:16;;;;;;;15.40;4.18;;;;;;;;;;5005653;28;20068;-76
2022/05/04 04:05:43;;;;;;;17.95;3.60;;;;;;;;;;5005752;28;20081;-76
2022/05/04 04:08:09;;;;;;;10.65;3.78;;;;;;;;;;5005468;28;20543;-76
2022/05/04 04:10:36;;;;;;;12.60;4.35;;;;;;;;;;5004458;28;20138;-76
2022/05/04 04:13:02;;;;;;;10.48;3.50;;;;;;;;;;5003121;28;20058;-76
2022/05/04 04:15:28;;;;;;;13.23;3.47;;;;;;;;;;5003612;28;20860;-77
2022/05/04 04:17:55;;;;;;;13.45;3.50;;;;;;;;;;5017044;28;20578;-76
2022/05/04 04:23:06;;;;;;;11.30;3.40;;;;;;;;;;5005434;28;20528;-78
2022/05/04 04:25:33;;;;;;;12.02;3.55;;;;;;;;;;5006200;28;20060;-76
2022/05/04 04:27:59;;;;;;;12.02;3.75;;;;;;;;;;5006159;28;20058;-76
2022/05/04 04:30:25;;;;;;;13.15;3.67;;;;;;;;;;5005286;28;20062;-76
2022/05/04 04:32:52;;;;;;;12.10;3.90;;;;;;;;;;4988051;28;20146;-76
2022/05/04 04:35:18;;;;;;;12.95;3.83;;;;;;;;;;5003646;28;20518;-76
2022/05/04 04:37:45;;;;;;;13.18;4.05;;;;;;;;;;5003668;28;20468;-76
2022/05/04 04:40:11;;;;;;;10.40;3.58;;;;;;;;;;5004956;28;20611;-76
2022/05/04 04:42:38;;;;;;;16.38;4.90;;;;;;;;;;5005522;28;20198;-76
2022/05/04 04:45:04;;;;;;;11.20;4.07;;;;;;;;;;5003347;28;20065;-76
2022/05/04 04:47:31;;;;;;;14.98;4.05;;;;;;;;;;5001136;28;20046;-76
2022/05/04 04:49:57;;;;;;;17.05;4.70;;;;;;;;;;4985100;28;20146;-76
2022/05/04 04:52:23;;;;;;;14.65;4.70;;;;;;;;;;4985090;28;20061;-77
2022/05/04 04:54:50;;;;;;;10.05;3.35;;;;;;;;;;5004631;28;20054;-75
2022/05/04 04:57:17;;;;;;;17.92;4.30;;;;;;;;;;5009741;28;20089;-76
2022/05/04 04:59:49;;;;;;;11.02;3.83;;;;;;;;;;4998312;28;20057;-76
2022/05/04 05:02:16;;;;;;;11.25;4.15;;;;;;;;;;4999112;28;20085;-76
2022/05/04 05:04:43;;;;;;;16.45;5.05;;;;;;;;;;5003899;28;20065;-76
2022/05/04 05:07:09;;;;;;;12.60;4.30;;;;;;;;;;5000961;28;20962;-76
2022/05/04 05:09:35;;;;;;;13.68;4.80;;;;;;;;;;5003656;28;20062;-76
2022/05/04 05:12:02;;;;;;;18.50;5.10;;;;;;;;;;5002700;28;20050;-76
2022/05/04 05:17:13;;;;;;;13.68;4.05;;;;;;;;;;5004982;28;20370;-77
2022/05/04 05:19:40;;;;;;;16.45;4.60;;;;;;;;;;5020298;28;20141;-77
2022/05/04 05:22:06;;;;;;;13.88;4.70;;;;;;;;;;5005010;28;20053;-76
2022/05/04 05:24:32;;;;;;;16.63;4.80;;;;;;;;;;5008082;28;20140;-76
2022/05/04 05:26:59;;;;;;;13.80;4.13;;;;;;;;;;5020775;28;20050;-76
2022/05/04 05:29:25;;;;;;;14.15;5.35;;;;;;;;;;5005068;28;20058;-76
2022/05/04 05:31:51;;;;;;;11.85;4.00;;;;;;;;;;5002907;28;20562;-77
2022/05/04 05:34:18;;;;;;;17.70;4.10;;;;;;;;;;5002601;28;20063;-77
2022/05/04 05:36:44;;;;;;;18.55;5.07;;;;;;;;;;5003579;28;20094;-76
2022/05/04 05:39:11;;;;;;;13.13;4.00;;;;;;;;;;5004752;28;20065;-77
2022/05/04 05:41:37;;;;;;;17.42;4.22;;;;;;;;;;5004944;28;20168;-76
2022/05/04 05:44:04;;;;;;;19.20;5.70;;;;;;;;;;5018861;28;20113;-77
2022/05/04 05:46:30;;;;;;;15.88;5.00;;;;;;;;;;5003803;28;20058;-76
2022/05/04 05:48:57;;;;;;;13.57;4.75;;;;;;;;;;5004947;28;20069;-77
2022/05/04 05:51:23;;;;;;;22.33;4.57;;;;;;;;;;5005414;28;20137;-77
2022/05/04 05:53:50;;;;;;;16.13;4.63;;;;;;;;;;5007962;28;20979;-77
2022/05/04 05:56:16;;;;;;;13.25;3.58;;;;;;;;;;5005761;28;20930;-75
2022/05/04 05:58:42;;;;;;;16.98;4.55;;;;;;;;;;4990051;28;20141;-76
2022/05/04 06:01:09;;;;;;;15.23;3.75;;;;;;;;;;5008497;28;20052;-77
2022/05/04 06:03:35;;;;;;;12.98;3.92;;;;;;;;;;5006747;28;20127;-77
2022/05/04 06:06:02;;;;;;;13.13;3.53;;;;;;;;;;5004156;28;20065;-77
2022/05/04 06:08:28;;;;;;;12.75;3.53;;;;;;;;;;5004297;28;20046;-77
2022/05/04 06:10:54;;;;;;;18.73;3.22;;;;;;;;;;5006465;28;20066;-76
2022/05/04 06:13:21;;;;;;;13.35;3.28;;;;;;;;;;5004691;28;20078;-77
2022/05/04 06:15:47;;;;;;;15.05;3.33;;;;;;;;;;5003050;28;20058;-77
2022/05/04 06:18:13;;;;;;;9.70;3.65;;;;;;;;;;5005002;28;20134;-77
2022/05/04 06:20:40;;;;;;;14.38;3.97;;;;;;;;;;5008368;28;20065;-77
2022/05/04 06:23:07;;;;;;;19.30;3.65;;;;;;;;;;5005332;28;20743;-77
2022/05/04 06:25:35;;;;;;;14.18;3.30;;;;;;;;;;5008838;28;20133;-77
2022/05/04 06:28:02;;;;;;;9.68;2.90;;;;;;;;;;5024075;28;20058;-78
2022/05/04 06:35:58;;;;;;;9.48;3.22;;;;;;;;;;5005577;28;20144;-77
2022/05/04 06:38:25;;;;;;;11.95;3.05;;;;;;;;;;5006893;28;20086;-77
2022/05/04 06:40:51;;;;;;;15.32;3.15;;;;;;;;;;5007347;28;20152;-77
2022/05/04 06:43:17;;;;;;;10.35;3.13;;;;;;;;;;5004864;28;20061;-77
2022/05/04 06:45:44;;;;;;;10.13;3.22;;;;;;;;;;4999684;28;20064;-77
2022/05/04 06:48:10;;;;;;;12.00;3.15;;;;;;;;;;5001581;28;20105;-76
2022/05/04 06:50:37;;;;;;;13.50;3.35;;;;;;;;;;5006010;28;20077;-77
2022/05/04 06:53:03;;;;;;;9.05;2.90;;;;;;;;;;5003500;28;20066;-77
2022/05/04 06:55:29;;;;;;;10.73;3.00;;;;;;;;;;5004001;28;20061;-77
2022/05/04 06:57:56;;;;;;;8.25;2.75;;;;;;;;;;5002790;28;20596;-77
2022/05/04 07:00:22;;;;;;;10.70;2.90;;;;;;;;;;5002650;28;20124;-77
2022/05/04 07:02:49;;;;;;;12.35;3.22;;;;;;;;;;5003582;28;20165;-77
2022/05/04 07:05:15;;;;;;;10.10;3.25;;;;;;;;;;4987104;28;20478;-77
2022/05/04 07:07:42;;;;;;;7.18;2.33;;;;;;;;;;5011918;28;20406;-77
2022/05/04 07:10:09;;;;;;;8.27;2.60;;;;;;;;;;5002447;28;20141;-76
2022/05/04 07:12:35;;;;;;;8.93;3.17;;;;;;;;;;5003229;28;20485;-76
2022/05/04 07:15:03;;;;;;;13.60;3.13;;;;;;;;;;5003805;28;20105;-77
2022/05/04 07:17:29;;;;;;;7.68;2.88;;;;;;;;;;5017552;28;20432;-77
2022/05/04 07:19:56;;;;;;;8.18;2.80;;;;;;;;;;5004597;28;20061;-76
2022/05/04 07:22:23;;;;;;;9.85;2.85;;;;;;;;;;5003847;28;20142;-76
2022/05/04 07:24:49;;;;;;;9.23;3.08;;;;;;;;;;5000146;28;20342;-77
2022/05/04 07:27:16;;;;;;;8.52;3.08;;;;;;;;;;4999362;28;20050;-78
2022/05/04 07:29:46;;;;;;;11.48;3.95;;;;;;;;;;5002850;28;20060;-76
2022/05/04 07:32:13;;;;;;;11.73;3.20;;;;;;;;;;5004069;28;20058;-76
2022/05/04 07:34:40;;;;;;;11.85;2.80;;;;;;;;;;4999029;28;20042;-76
2022/05/04 07:37:06;;;;;;;9.10;3.20;;;;;;;;;;4998837;28;20050;-76
2022/05/04 07:42:24;;;;;;;9.82;3.40;;;;;;;;;;4998795;28;20133;-77
2022/05/04 07:44:53;;;;;;;11.35;3.22;;;;;;;;;;4999837;28;20077;-77
2022/05/04 07:47:23;;;;;;;11.50;3.17;;;;;;;;;;5002028;28;20058;-77
2022/05/04 07:49:49;;;;;;;8.52;3.28;;;;;;;;;;4999365;28;20086;-77
2022/05/04 07:52:16;;;;;;;14.55;2.88;;;;;;;;;;5001491;28;20058;-77
2022/05/04 07:54:43;;;;;;;9.18;3.35;;;;;;;;;;5004059;28;20583;-77
2022/05/04 07:57:09;;;;;;;8.90;2.97;;;;;;;;;;4998774;28;20068;-77
2022/05/04 07:59:36;;;;;;;9.43;3.15;;;;;;;;;;5002138;28;20074;-77
2022/05/04 08:04:47;;;;;;;11.80;3.42;;;;;;;;;;5000818;28;20141;-77
2022/05/04 08:07:14;;;;;;;13.82;3.45;;;;;;;;;;5002446;28;20066;-77
2022/05/04 08:09:41;;;;;;;9.00;3.60;;;;;;;;;;5003201;28;20054;-77
2022/05/04 08:12:08;;;;;;;8.63;3.10;;;;;;;;;;5003803;28;20054;-77
2022/05/04 08:14:35;;;;;;;8.73;3.22;;;;;;;;;;5001668;28;20610;-77
2022/05/04 08:17:01;;;;;;;9.98;3.22;;;;;;;;;;5000463;28;20054;-75
2022/05/04 08:19:28;;;;;;;8.90;3.45;;;;;;;;;;5002217;28;20073;-76
2022/05/04 08:21:55;;;;;;;10.77;3.55;;;;;;;;;;4993970;28;20164;-76
2022/05/04 08:24:22;;;;;;;8.02;3.50;;;;;;;;;;5011595;28;20047;-76
2022/05/04 08:26:48;;;;;;;9.35;3.60;;;;;;;;;;5006290;28;20199;-77
2022/05/04 08:29:14;;;;;;;8.75;3.33;;;;;;;;;;4998021;28;20054;-76
2022/05/04 08:31:41;;;;;;;13.13;3.90;;;;;;;;;;5001134;28;20428;-76
2022/05/04 08:34:07;;;;;;;8.13;3.22;;;;;;;;;;4989899;28;20185;-77
2022/05/04 08:36:37;;;;;;;8.48;4.00;;;;;;;;;;5004823;28;20054;-77
2022/05/04 08:39:04;;;;;;;;;;;;;;;;;;5005231;28;20506;-77
2022/05/04 08:41:31;;;;;;;8.52;3.70;;;;;;;;;;5003861;28;47073;-77
2022/05/04 08:43:58;;;;;;;11.25;4.07;;;;;;;;;;5001789;28;20233;-77
2022/05/04 08:46:25;;;;;;;12.57;4.18;;;;;;;;;;5000500;28;21793;-77
2022/05/04 08:48:51;;;;;;;9.77;4.05;;;;;;;;;;5003551;28;20065;-77
2022/05/04 08:51:19;;;;;;;14.32;4.03;;;;;;;;;;5002266;28;20591;-77
2022/05/04 08:53:48;;;;;;;10.68;4.22;;;;;;;;;;5002313;28;20137;-77
2022/05/04 08:56:15;;;;;;;10.48;3.97;;;;;;;;;;4999339;28;20409;-77
2022/05/04 08:58:41;;;;;;;8.95;4.22;;;;;;;;;;5002202;28;20058;-77
2022/05/04 09:01:07;;;;;;;9.95;4.13;;;;;;;;;;5003041;28;20520;-77
2022/05/04 09:03:34;;;;;;;9.82;3.90;;;;;;;;;;5000078;28;20105;-77
2022/05/04 09:06:00;;;;;;;9.98;4.07;;;;;;;;;;4998947;28;20105;-77
2022/05/04 09:08:57;;;;;;;13.52;5.03;;;;;;;;;;5002872;28;20066;-77
2022/05/04 09:11:24;;;;;;;9.98;4.15;;;;;;;;;;5003577;28;20050;-77
2022/05/04 09:13:50;;;;;;;9.63;4.65;;;;;;;;;;4999619;28;20539;-77
2022/05/04 09:16:26;;;;;;;11.07;4.43;;;;;;;;;;5003810;28;20857;-77
2022/05/04 09:18:53;;;;;;;10.68;4.88;;;;;;;;;;4997217;28;20054;-76
2022/05/04 09:21:23;;;;;;;11.65;4.45;;;;;;;;;;5002509;28;20134;-76
2022/05/04 09:23:52;;;;;;;10.85;4.70;;;;;;;;;;5002375;28;20616;-76
2022/05/04 09:26:22;;;;;;;12.43;4.95;;;;;;;;;;5000726;28;20133;-76
2022/05/04 09:28:56;;;;;;;9.13;4.28;;;;;;;;;;5003430;28;20532;-77
2022/05/04 09:31:26;;;;;;;12.02;4.60;;;;;;;;;;4998562;28;20055;-77
2022/05/04 09:33:52;;;;;;;;;;;;;;;;;;4996099;28;20095;-77
2022/05/04 09:36:29;;;;;;;8.43;4.55;;;;;;;;;;5014133;28;44946;-77
2022/05/04 09:45:08;;;;;;;12.50;5.30;;;;;;;;;;5002870;28;20153;-77
2022/05/04 09:47:38;;;;;;;9.73;4.90;;;;;;;;;;5018201;28;20113;-77
2022/05/04 09:50:05;;;;;;;10.18;4.57;;;;;;;;;;5002994;28;20082;-77
2022/05/04 09:52:41;;;;;;;10.32;5.03;;;;;;;;;;4997955;28;20475;-77
2022/05/04 09:55:24;;;;;;;13.50;6.22;;;;;;;;;;5003172;28;20062;-77
2022/05/04 09:57:54;;;;;;;11.23;5.32;;;;;;;;;;5015506;28;20066;-77
2022/05/04 10:00:21;;;;;;;14.60;5.05;;;;;;;;;;5001727;28;20107;-77
2022/05/04 10:02:48;;;;;;;12.75;5.22;;;;;;;;;;4999648;28;20050;-77
2022/05/04 10:05:16;;;;;;;12.05;5.35;;;;;;;;;;5002633;28;20526;-77
2022/05/04 10:07:44;;;;;;;9.68;4.32;;;;;;;;;;5003370;28;20137;-77
2022/05/04 10:10:14;;;;;;;9.13;4.65;;;;;;;;;;4999690;28;20534;-77
2022/05/04 10:12:41;;;;;;;11.30;4.72;;;;;;;;;;4999939;28;20567;-77
2022/05/04 10:15:10;;;;;;;11.57;5.00;;;;;;;;;;5002347;28;20055;-77
2022/05/04 10:17:38;;;;;;;14.15;4.78;;;;;;;;;;4994328;28;20587;-77
2022/05/04 10:20:21;;;;;;;14.90;5.53;;;;;;;;;;4992976;28;20612;-77
2022/05/04 10:22:47;;;;;;;9.90;4.75;;;;;;;;;;4992563;28;20136;-76
2022/05/04 10:25:14;;;;;;;11.27;4.93;;;;;;;;;;5000071;28;20141;-77
2022/05/04 10:27:41;;;;;;;12.02;4.82;;;;;;;;;;4998715;28;20050;-77
2022/05/04 10:33:00;;;;;;;15.25;5.03;;;;;;;;;;5002451;28;20093;-77
2022/05/04 10:35:38;;;;;;;10.27;5.10;;;;;;;;;;5003255;28;20486;-78
2022/05/04 10:38:11;;;;;;;10.77;5.35;;;;;;;;;;5002845;28;20169;-77
2022/05/04 10:40:38;;;;;;;10.90;5.00;;;;;;;;;;5004946;28;20089;-77
2022/05/04 10:43:05;;;;;;;10.82;5.78;;;;;;;;;;5005465;28;20054;-77
2022/05/04 10:45:36;;;;;;;12.02;4.97;;;;;;;;;;5004975;28;20141;-77
2022/05/04 10:48:14;;;;;;;12.30;5.47;;;;;;;;;;5004447;28;20799;-77
2022/05/04 10:51:02;;;;;;;12.23;5.65;;;;;;;;;;5007605;28;20093;-77
2022/05/04 10:53:29;;;;;;;11.45;5.30;;;;;;;;;;5003955;28;20059;-77
2022/05/04 10:56:01;;;;;;;13.20;5.65;;;;;;;;;;5002081;28;20058;-76
2022/05/04 10:58:35;;;;;;;9.10;5.28;;;;;;;;;;5011176;28;20508;-77
2022/05/04 11:01:03;;;;;;;8.25;5.55;;;;;;;;;;5029705;28;20054;-77
2022/05/04 11:03:36;;;;;;;11.50;5.53;;;;;;;;;;5008646;28;20428;-77
2022/05/04 11:06:09;;;;;;;11.80;5.40;;;;;;;;;;5013268;28;20058;-77
2022/05/04 11:08:45;;;;;;;12.38;6.00;;;;;;;;;;5020258;28;20506;-77
2022/05/04 11:11:13;;;;;;;10.48;6.10;;;;;;;;;;5009449;28;20650;-76
2022/05/04 11:13:42;;;;;;;11.70;5.97;;;;;;;;;;5003617;28;20093;-76
2022/05/04 11:16:09;;;;;;;10.80;5.90;;;;;;;;;;5006203;28;20535;-76
2022/05/04 11:18:35;;;;;;;9.27;5.57;;;;;;;;;;5022031;28;20061;-76
2022/05/04 11:21:05;;;;;;;11.73;5.80;;;;;;;;;;5008409;28;20059;-76
2022/05/04 11:23:32;;;;;;;9.18;5.18;;;;;;;;;;5008073;28;20468;-76
2022/05/04 11:25:59;;;;;;;12.88;5.82;;;;;;;;;;5002414;28;20532;-77
2022/05/04 11:28:25;;;;;;;11.38;5.43;;;;;;;;;;4999990;28;20559;-76
2022/05/04 11:30:54;;;;;;;11.50;5.63;;;;;;;;;;5000901;28;20057;-77
2022/05/04 11:33:21;;;;;;;10.90;5.55;;;;;;;;;;5001864;28;20058;-76
2022/05/04 11:35:53;;;;;;;9.05;5.47;;;;;;;;;;4997554;28;20054;-76
2022/05/04 11:38:20;;;;;;;11.93;5.75;;;;;;;;;;5006842;28;20134;-76
2022/05/04 11:40:47;;;;;;;9.43;5.75;;;;;;;;;;4995352;28;20149;-76
2022/05/04 11:43:21;;;;;;;11.55;5.60;;;;;;;;;;4999845;28;20137;-78
2022/05/04 11:45:47;;;;;;;11.80;6.28;;;;;;;;;;5001806;28;20145;-78
2022/05/04 11:48:15;;;;;;;13.35;6.18;;;;;;;;;;5000839;28;20054;-76
2022/05/04 11:50:42;;;;;;;12.93;6.18;;;;;;;;;;4997483;28;20146;-77
2022/05/04 11:53:08;;;;;;;10.13;5.90;;;;;;;;;;5016691;28;20090;-76
2022/05/04 11:55:35;;;;;;;15.80;6.55;;;;;;;;;;5000687;28;20671;-76
2022/05/04 11:58:02;;;;;;;10.73;5.28;;;;;;;;;;5001039;28;20623;-76
2022/05/04 12:00:28;;;;;;;12.13;5.47;;;;;;;;;;4999535;28;20046;-76
2022/05/04 12:02:56;;;;;;;9.85;5.53;;;;;;;;;;4999466;28;20177;-76
2022/05/04 12:05:22;;;;;;;10.65;5.75;;;;;;;;;;4996275;28;20140;-76
2022/05/04 12:07:49;;;;;;;13.43;5.70;;;;;;;;;;4995098;28;20577;-76
2022/05/04 12:10:15;;;;;;;10.27;5.28;;;;;;;;;;5002113;28;20059;-76
2022/05/04 12:12:42;;;;;;;12.48;5.35;;;;;;;;;;5003500;28;20054;-76
2022/05/04 12:15:09;;;;;;;13.15;5.47;;;;;;;;;;4999611;28;20050;-76
2022/05/04 12:17:36;;;;;;;12.40;6.50;;;;;;;;;;5003065;28;20050;-76
2022/05/04 12:20:03;;;;;;;11.10;5.93;;;;;;;;;;4995868;28;20058;-76
2022/05/04 12:22:30;;;;;;;11.85;5.97;;;;;;;;;;4992237;28;20097;-76
2022/05/04 12:24:56;;;;;;;11.60;6.03;;;;;;;;;;5012013;28;20133;-76
2022/05/04 12:27:23;;;;;;;13.40;5.40;;;;;;;;;;5016148;28;20141;-77
2022/05/04 12:35:22;;;;;;;10.52;5.80;;;;;;;;;;5002280;28;20149;-76
2022/05/04 12:37:52;;;;;;;15.85;6.25;;;;;;;;;;5015837;28;20137;-76
2022/05/04 12:40:18;;;;;;;9.65;5.47;;;;;;;;;;5001305;28;20057;-76
2022/05/04 12:42:45;;;;;;;12.43;5.70;;;;;;;;;;4999132;28;20197;-76
2022/05/04 12:45:17;;;;;;;11.27;5.78;;;;;;;;;;5000791;28;20082;-76
2022/05/04 12:47:44;;;;;;;11.15;5.93;;;;;;;;;;5000476;28;20076;-76
2022/05/04 12:50:11;;;;;;;14.98;6.00;;;;;;;;;;4999636;28;20082;-76
2022/05/04 12:52:38;;;;;;;11.23;5.45;;;;;;;;;;5000468;28;20054;-76
2022/05/04 12:55:05;;;;;;;12.77;6.38;;;;;;;;;;5000853;28;20149;-76
2022/05/04 12:57:31;;;;;;;11.90;5.30;;;;;;;;;;5000405;28;20149;-76
2022/05/04 12:59:57;;;;;;;11.27;5.82;;;;;;;;;;5014273;28;20105;-76
2022/05/04 13:02:24;;;;;;;10.68;6.18;;;;;;;;;;4999052;28;20054;-76
2022/05/04 13:04:50;;;;;;;11.55;5.82;;;;;;;;;;5001648;28;20537;-76
2022/05/04 13:07:17;;;;;;;12.00;6.30;;;;;;;;;;5002443;28;20054;-76
2022/05/04 13:09:43;;;;;;;15.63;6.15;;;;;;;;;;5001213;28;20055;-76
2022/05/04 13:12:11;;;;;;;10.88;5.50;;;;;;;;;;5002600;28;20181;-76
2022/05/04 13:14:40;;;;;;;12.60;6.07;;;;;;;;;;4991208;28;20193;-76
2022/05/04 13:17:07;;;;;;;11.10;5.90;;;;;;;;;;5014695;28;20109;-76
2022/05/04 13:19:36;;;;;;;15.77;6.47;;;;;;;;;;4997658;28;20270;-76
2022/05/04 13:22:02;;;;;;;17.88;6.50;;;;;;;;;;5000645;28;20057;-76
2022/05/04 13:24:28;;;;;;;12.70;6.47;;;;;;;;;;4997052;28;20197;-76
2022/05/04 13:26:55;;;;;;;12.20;6.35;;;;;;;;;;4995903;28;20085;-76
2022/05/04 13:29:21;;;;;;;17.05;6.47;;;;;;;;;;4995783;28;20089;-76
2022/05/04 13:31:49;;;;;;;10.57;5.97;;;;;;;;;;5001237;28;20421;-76
2022/05/04 13:34:15;;;;;;;12.27;6.65;;;;;;;;;;4995976;28;20059;-76
2022/05/04 13:36:42;;;;;;;12.32;6.63;;;;;;;;;;5001377;28;20497;-76
2022/05/04 13:39:08;;;;;;;12.43;6.45;;;;;;;;;;5002264;28;20062;-77
2022/05/04 13:41:34;;;;;;;10.90;5.55;;;;;;;;;;5001441;28;21888;-76
2022/05/04 13:44:01;;;;;;;10.02;5.85;;;;;;;;;;4999852;28;20134;-76
2022/05/04 13:46:28;;;;;;;10.55;5.72;;;;;;;;;;4997746;28;20606;-76
2022/05/04 13:48:56;;;;;;;9.82;4.95;;;;;;;;;;4996886;28;20592;-76
2022/05/04 13:54:11;;;;;;;9.27;4.13;;;;;;;;;;5003311;28;20551;-76
2022/05/04 13:56:37;;;;;;;9.63;4.40;;;;;;;;;;4998270;28;20133;-76
2022/05/04 13:59:04;;;;;;;9.10;5.05;;;;;;;;;;5001108;28;20717;-76
2022/05/04 14:01:35;;;;;;;11.73;5.28;;;;;;;;;;5001336;28;20079;-76
2022/05/04 14:04:02;;;;;;;9.90;5.15;;;;;;;;;;4999456;28;20061;-77
2022/05/04 14:06:28;;;;;;;8.95;4.72;;;;;;;;;;5002835;28;20093;-77
2022/05/04 14:08:54;;;;;;;11.80;4.40;;;;;;;;;;4996377;28;20060;-76
2022/05/04 14:11:22;;;;;;;11.93;4.80;;;;;;;;;;5000217;28;20074;-76
2022/05/04 14:13:50;;;;;;;12.70;4.78;;;;;;;;;;4997090;28;20101;-76
2022/05/04 14:16:16;;;;;;;8.75;3.72;;;;;;;;;;5005266;28;20082;-76
2022/05/04 14:18:43;;;;;;;9.13;4.30;;;;;;;;;;5006201;28;20064;-76
2022/05/04 14:21:09;;;;;;;11.95;4.60;;;;;;;;;;4998133;28;20138;-76
2022/05/04 14:23:35;;;;;;;10.13;4.47;;;;;;;;;;5003137;28;20444;-76
2022/05/04 14:26:02;;;;;;;8.95;4.03;;;;;;;;;;4995379;28;20694;-77
2022/05/04 14:28:28;;;;;;;8.68;4.57;;;;;;;;;;4999975;28;20138;-77
2022/05/04 14:31:00;;;;;;;11.23;4.22;;;;;;;;;;5005391;28;20054;-77
2022/05/04 14:33:27;;;;;;;9.02;4.22;;;;;;;;;;5005569;28;20054;-77
2022/05/04 14:35:53;;;;;;;9.57;4.00;;;;;;;;;;5005004;28;20058;-77
2022/05/04 14:38:20;;;;;;;8.05;3.60;;;;;;;;;;5004673;28;20086;-76
2022/05/04 14:40:46;;;;;;;9.68;4.00;;;;;;;;;;5000231;28;20054;-77
2022/05/04 14:43:13;;;;;;;11.07;3.92;;;;;;;;;;5005141;28;20050;-76
2022/05/04 14:45:39;;;;;;;8.00;3.75;;;;;;;;;;4993404;28;20059;-77
2022/05/04 14:48:06;;;;;;;8.38;3.78;;;;;;;;;;4989992;28;20109;-77
2022/05/04 14:50:32;;;;;;;7.72;3.65;;;;;;;;;;4994680;28;20134;-77
2022/05/04 14:52:58;;;;;;;11.32;4.25;;;;;;;;;;5005174;28;20145;-76
2022/05/04 14:55:25;;;;;;;10.27;4.13;;;;;;;;;;5005506;28;20063;-76
2022/05/04 14:57:51;;;;;;;8.23;3.28;;;;;;;;;;5005701;28;20058;-76
2022/05/04 15:00:18;;;;;;;6.97;3.58;;;;;;;;;;5003978;28;20133;-76
2022/05/04 15:05:29;;;;;;;10.40;3.63;;;;;;;;;;5006007;28;20137;-76
2022/05/04 15:07:55;;;;;;;8.73;3.33;;;;;;;;;;4998962;28;20058;-77
2022/05/04 15:10:22;;;;;;;12.32;4.60;;;;;;;;;;5004590;28;20105;-76
2022/05/04 15:12:48;;;;;;;13.45;4.55;;;;;;;;;;5000690;28;20054;-76
2022/05/04 15:15:15;;;;;;;14.85;4.30;;;;;;;;;;4994723;28;20986;-76
2022/05/04 15:17:41;;;;;;;10.02;4.25;;;;;;;;;;4992925;28;20101;-76